Ojibwa, Wisconsin
Current Conditions -  °F | °C
As of 4:55 AM on Friday 31 Oct 2014 (Local Time) from KRCX Reporting Station
Scattered Clouds Scattered Clouds  
Wind Chill: 17°   Ceiling: Unl
Heat Index: 29°   Visibility: 10mi
Dew Point: 23°   Wind: 18mph
Humidity: 76%   Direction: 340°NNW
Pressure: 30.36"   Gusts: 24mph
Location:  45.8°N, 91.12°W
Report Text: KRCX 310955Z AUTO 34016G21KT 10SM SCT024 SCT035 M01/M05 A3036 RMK AO2 T10141051
Loading
Personal Weather Stations






























Interactive Weather Map New forecast layout! Learn more

10-Day Weather Forecast

Advertisements
Track Severe Weather on mobile